createdAt,value
2023-11-21T00:01:28.424Z,9.73
2023-11-21T00:04:30.317Z,9.67
2023-11-21T00:07:32.064Z,9.81
2023-11-21T00:10:34.056Z,9.54
2023-11-21T00:13:36.423Z,9.79
2023-11-21T00:16:38.335Z,9.71
2023-11-21T00:19:40.135Z,9.76
2023-11-21T00:22:42.097Z,9.85
2023-11-21T00:25:44.035Z,9.81
2023-11-21T00:28:46.742Z,9.90
2023-11-21T00:31:48.581Z,9.88
2023-11-21T00:34:50.536Z,9.97
2023-11-21T00:37:52.335Z,9.89
2023-11-21T00:40:57.333Z,9.85
2023-11-21T00:44:00.605Z,9.85
2023-11-21T00:47:02.478Z,9.91
2023-11-21T00:50:05.476Z,9.91
2023-11-21T00:53:08.499Z,9.88
2023-11-21T00:56:10.802Z,9.95
2023-11-21T00:59:12.567Z,9.91
2023-11-21T01:02:16.848Z,9.98
2023-11-21T01:05:18.757Z,9.96
2023-11-21T01:08:21.541Z,9.96
2023-11-21T01:11:23.331Z,9.95
2023-11-21T01:14:25.045Z,9.95
2023-11-21T01:17:26.900Z,9.93
2023-11-21T01:20:28.792Z,9.94
2023-11-21T01:23:30.838Z,10.02
2023-11-21T01:26:32.560Z,9.99
2023-11-21T01:29:34.288Z,9.99
2023-11-21T01:32:36.104Z,10.02
2023-11-21T01:35:39.127Z,10.08
2023-11-21T01:38:40.928Z,10.06
2023-11-21T01:41:45.594Z,9.96
2023-11-21T01:44:47.961Z,9.97
2023-11-21T01:47:49.939Z,10.02
2023-11-21T01:50:52.248Z,9.99
2023-11-21T01:53:54.442Z,10.02
2023-11-21T01:56:56.498Z,10.00
2023-11-21T02:00:00.139Z,9.93
2023-11-21T02:03:02.765Z,10.08
2023-11-21T02:06:05.091Z,10.05
2023-11-21T02:09:06.857Z,9.98
2023-11-21T02:12:10.034Z,10.03
2023-11-21T02:15:18.182Z,10.01
2023-11-21T02:18:20.093Z,9.90
2023-11-21T02:21:21.959Z,9.80
2023-11-21T02:24:24.349Z,9.88
2023-11-21T02:27:26.075Z,9.82
2023-11-21T02:30:33.706Z,9.88
2023-11-21T02:33:35.723Z,9.74
2023-11-21T02:36:38.397Z,9.87
2023-11-21T02:39:41.059Z,9.80
2023-11-21T02:42:42.787Z,9.60
2023-11-21T02:45:44.711Z,9.65
2023-11-21T02:48:46.490Z,9.52
2023-11-21T02:51:48.262Z,9.36
2023-11-21T02:54:50.043Z,9.55
2023-11-21T02:57:52.089Z,9.49
2023-11-21T03:00:55.436Z,9.60
2023-11-21T03:03:58.073Z,9.44
2023-11-21T03:06:59.830Z,9.40
2023-11-21T03:10:01.977Z,9.47
2023-11-21T03:13:03.765Z,9.39
2023-11-21T03:16:07.996Z,9.46
2023-11-21T03:19:09.799Z,9.36
2023-11-21T03:22:12.978Z,9.40
2023-11-21T03:25:14.878Z,9.38
2023-11-21T03:28:16.701Z,9.32
2023-11-21T03:31:19.803Z,9.21
2023-11-21T03:34:27.616Z,9.18
2023-11-21T03:37:30.567Z,9.11
2023-11-21T03:40:33.086Z,9.10
2023-11-21T03:43:34.927Z,9.11
2023-11-21T03:46:36.716Z,9.26
2023-11-21T03:49:39.240Z,9.16
2023-11-21T03:52:41.164Z,9.08
2023-11-21T03:55:42.957Z,9.13
2023-11-21T03:58:46.923Z,9.02
2023-11-21T04:01:48.733Z,8.89
2023-11-21T04:04:50.548Z,8.82
2023-11-21T04:07:52.930Z,8.94
2023-11-21T04:10:54.926Z,8.87
2023-11-21T04:13:56.856Z,8.67
2023-11-21T04:16:58.711Z,8.64
2023-11-21T04:20:00.565Z,8.74
2023-11-21T04:23:02.388Z,8.76
2023-11-21T04:26:04.127Z,8.80
2023-11-21T04:29:06.858Z,8.59
2023-11-21T04:32:09.183Z,8.86
2023-11-21T04:35:11.084Z,8.83
2023-11-21T04:38:12.981Z,8.87
2023-11-21T04:41:14.717Z,8.80
2023-11-21T04:44:17.690Z,8.80
2023-11-21T04:47:21.148Z,8.80
2023-11-21T04:50:23.116Z,8.83
2023-11-21T04:53:24.843Z,8.80
2023-11-21T04:56:26.622Z,8.79
2023-11-21T04:59:28.489Z,8.74
2023-11-21T05:02:35.576Z,8.73
2023-11-21T05:05:38.118Z,8.53
2023-11-21T05:08:39.862Z,8.57
2023-11-21T05:11:42.271Z,8.70
2023-11-21T05:14:44.590Z,8.67
2023-11-21T05:17:47.324Z,8.65
2023-11-21T05:20:49.471Z,8.53
2023-11-21T05:23:51.216Z,8.64
2023-11-21T05:26:52.978Z,8.58
2023-11-21T05:29:54.961Z,8.69
2023-11-21T05:32:56.826Z,8.83
2023-11-21T05:35:58.573Z,8.70
2023-11-21T05:39:00.387Z,8.55
2023-11-21T05:42:02.122Z,8.75
2023-11-21T05:45:13.850Z,8.75
2023-11-21T05:48:17.213Z,8.71
2023-11-21T05:51:19.035Z,8.75
2023-11-21T05:54:21.197Z,8.75
2023-11-21T05:57:22.922Z,8.71
2023-11-21T06:00:26.847Z,8.66
2023-11-21T06:03:28.929Z,8.47
2023-11-21T06:06:30.844Z,8.40
2023-11-21T06:09:32.589Z,8.42
2023-11-21T06:12:36.989Z,8.35
2023-11-21T06:15:38.717Z,8.53
2023-11-21T06:18:41.202Z,8.49
2023-11-21T06:21:47.125Z,8.47
2023-11-21T06:24:48.869Z,8.55
2023-11-21T06:27:53.213Z,8.38
2023-11-21T06:30:54.981Z,8.49
2023-11-21T06:33:56.749Z,8.49
2023-11-21T06:36:58.471Z,8.38
2023-11-21T06:40:01.380Z,8.49
2023-11-21T06:43:03.344Z,8.42
2023-11-21T06:46:05.844Z,8.51
2023-11-21T06:49:07.872Z,8.45
2023-11-21T06:52:09.634Z,8.55
2023-11-21T06:55:12.294Z,8.34
2023-11-21T06:58:16.065Z,8.38
2023-11-21T07:01:17.905Z,8.42
2023-11-21T07:04:19.999Z,8.47
2023-11-21T07:07:21.798Z,8.22
2023-11-21T07:10:23.697Z,8.14
2023-11-21T07:13:25.500Z,8.25
2023-11-21T07:16:28.214Z,8.27
2023-11-21T07:19:30.422Z,8.17
2023-11-21T07:22:32.276Z,8.13
2023-11-21T07:25:36.764Z,8.16
2023-11-21T07:28:38.520Z,8.34
2023-11-21T07:31:41.112Z,8.27
2023-11-21T07:34:43.119Z,8.22
2023-11-21T07:37:45.003Z,8.25
2023-11-21T07:40:46.862Z,8.31
2023-11-21T07:43:48.711Z,8.27
2023-11-21T07:46:52.213Z,8.28
2023-11-21T07:49:57.264Z,8.28
2023-11-21T07:52:59.457Z,8.32
2023-11-21T07:56:05.676Z,8.36
2023-11-21T07:59:07.662Z,8.35
2023-11-21T08:02:09.411Z,8.28
2023-11-21T08:05:18.463Z,8.35
2023-11-21T08:08:27.077Z,8.27
2023-11-21T08:11:30.944Z,8.30
2023-11-21T08:14:32.821Z,8.23
2023-11-21T08:17:34.716Z,8.08
2023-11-21T08:20:39.823Z,8.09
2023-11-21T08:23:41.577Z,8.23
2023-11-21T08:26:43.295Z,8.35
2023-11-21T08:29:45.114Z,8.17
2023-11-21T08:32:46.883Z,8.09
2023-11-21T08:35:48.793Z,8.10
2023-11-21T08:38:51.004Z,8.20
2023-11-21T08:41:52.759Z,8.35
2023-11-21T08:44:54.902Z,8.20
2023-11-21T08:47:56.725Z,8.30
2023-11-21T08:50:58.616Z,8.28
2023-11-21T08:54:02.158Z,8.36
2023-11-21T08:57:04.129Z,8.36
2023-11-21T09:00:13.919Z,8.40
2023-11-21T09:03:15.737Z,8.60
2023-11-21T09:06:17.485Z,8.69
2023-11-21T09:09:20.987Z,8.65
2023-11-21T09:12:22.896Z,8.61
2023-11-21T09:15:24.667Z,8.64
2023-11-21T09:18:26.609Z,8.71
2023-11-21T09:21:29.045Z,8.85
2023-11-21T09:24:31.784Z,8.71
2023-11-21T09:27:33.747Z,8.86
2023-11-21T09:30:36.594Z,8.62
2023-11-21T09:33:39.684Z,8.81
2023-11-21T09:36:42.259Z,8.79
2023-11-21T09:39:44.253Z,8.75
2023-11-21T09:42:55.345Z,8.61
2023-11-21T09:46:03.684Z,8.43
2023-11-21T09:49:07.220Z,8.71
2023-11-21T09:52:10.466Z,8.71
2023-11-21T09:55:17.022Z,8.76
2023-11-21T09:58:20.537Z,8.66
2023-11-21T10:01:22.806Z,8.78
2023-11-21T10:04:24.863Z,8.81
2023-11-21T10:07:28.429Z,8.72
2023-11-21T10:10:33.392Z,8.58
2023-11-21T10:13:36.312Z,8.68
2023-11-21T10:16:40.597Z,8.64
2023-11-21T10:19:42.867Z,8.56
2023-11-21T10:22:45.063Z,8.84
2023-11-21T10:25:47.028Z,8.77
2023-11-21T10:29:02.399Z,8.47
2023-11-21T10:32:05.008Z,8.48
2023-11-21T10:35:11.752Z,8.55
2023-11-21T10:38:15.261Z,8.66
2023-11-21T10:41:19.687Z,8.73
2023-11-21T10:44:22.286Z,8.55
2023-11-21T10:47:25.111Z,8.85
2023-11-21T10:50:27.704Z,8.77
2023-11-21T10:53:30.372Z,8.68
2023-11-21T10:56:36.450Z,8.80
2023-11-21T10:59:38.157Z,8.81
2023-11-21T11:02:41.057Z,8.85
2023-11-21T11:05:53.612Z,8.78
2023-11-21T11:08:56.162Z,8.73
2023-11-21T11:11:58.217Z,8.55
2023-11-21T11:15:00.623Z,8.52
2023-11-21T11:18:04.416Z,8.68
2023-11-21T11:21:24.323Z,8.66
2023-11-21T11:24:37.314Z,8.97
2023-11-21T11:27:45.601Z,8.81
2023-11-21T11:31:06.261Z,8.78
2023-11-21T11:34:17.935Z,8.81
2023-11-21T11:37:20.769Z,9.00
2023-11-21T11:40:24.667Z,8.90
2023-11-21T11:43:28.515Z,8.89
2023-11-21T11:46:46.694Z,8.94
2023-11-21T11:50:06.944Z,8.86
2023-11-21T11:53:16.375Z,9.04
2023-11-21T11:56:45.838Z,8.93
2023-11-21T12:00:11.954Z,8.98
2023-11-21T12:03:14.868Z,8.75
2023-11-21T12:06:16.708Z,9.02
2023-11-21T12:09:27.849Z,9.13
2023-11-21T12:12:30.779Z,8.96
2023-11-21T12:15:32.695Z,8.97
2023-11-21T12:18:34.561Z,8.85
2023-11-21T12:21:37.557Z,8.88
2023-11-21T12:24:39.258Z,8.72
2023-11-21T12:27:41.321Z,8.95
2023-11-21T12:30:43.089Z,8.98
2023-11-21T12:33:44.951Z,8.83
2023-11-21T12:36:46.973Z,8.95
2023-11-21T12:39:48.707Z,9.02
2023-11-21T12:42:54.571Z,8.98
2023-11-21T12:46:17.261Z,9.04
2023-11-21T12:49:19.892Z,8.87
2023-11-21T12:52:22.483Z,8.99
2023-11-21T12:55:25.093Z,9.20
2023-11-21T12:58:27.485Z,9.04
2023-11-21T13:01:30.764Z,8.77
2023-11-21T13:04:36.192Z,8.78
2023-11-21T13:07:48.370Z,8.92
2023-11-21T13:10:53.143Z,8.98
2023-11-21T13:13:55.282Z,8.77
2023-11-21T13:16:57.207Z,8.60
2023-11-21T13:19:59.217Z,8.87
2023-11-21T13:23:02.381Z,8.84
2023-11-21T13:26:08.086Z,8.86
2023-11-21T13:29:10.122Z,8.95
2023-11-21T13:32:13.314Z,8.84
2023-11-21T13:35:31.897Z,8.97
2023-11-21T13:38:34.558Z,8.82
2023-11-21T13:41:39.120Z,8.96
2023-11-21T13:44:45.311Z,9.04
2023-11-21T13:47:47.050Z,9.01
2023-11-21T13:51:00.074Z,8.90
2023-11-21T13:54:01.962Z,8.83
2023-11-21T13:57:04.626Z,8.86
2023-11-21T14:00:12.309Z,8.68
2023-11-21T14:03:23.533Z,8.55
2023-11-21T14:06:33.996Z,8.73
2023-11-21T14:09:45.090Z,8.59
2023-11-21T14:12:48.112Z,8.37
2023-11-21T14:15:52.317Z,8.35
2023-11-21T14:18:59.949Z,8.33
2023-11-21T14:22:02.409Z,8.50
2023-11-21T14:25:05.454Z,8.41
2023-11-21T14:28:07.474Z,8.35
2023-11-21T14:31:14.658Z,8.37
2023-11-21T14:34:19.570Z,8.28
2023-11-21T14:37:23.242Z,8.35
2023-11-21T14:40:25.849Z,8.41
2023-11-21T14:43:31.068Z,8.34
2023-11-21T14:46:33.155Z,8.22
2023-11-21T14:49:51.033Z,8.15
2023-11-21T14:53:00.893Z,8.24
2023-11-21T14:56:05.359Z,8.06
2023-11-21T14:59:13.854Z,7.98
2023-11-21T15:02:16.836Z,7.98
2023-11-21T15:05:19.847Z,7.88
2023-11-21T15:08:27.589Z,7.41
2023-11-21T15:11:32.354Z,7.77
2023-11-21T15:14:37.215Z,7.66
2023-11-21T15:17:41.120Z,7.81
2023-11-21T15:20:44.697Z,7.66
2023-11-21T15:23:46.569Z,7.69
2023-11-21T15:26:48.375Z,7.66
2023-11-21T15:29:51.467Z,7.56
2023-11-21T15:32:54.769Z,7.69
2023-11-21T15:35:56.779Z,7.70
2023-11-21T15:38:59.507Z,7.78
2023-11-21T15:42:01.538Z,7.81
2023-11-21T15:45:06.089Z,7.85
2023-11-21T15:48:08.117Z,7.68
2023-11-21T15:51:13.769Z,7.86
2023-11-21T15:54:15.628Z,7.77
2023-11-21T15:57:18.658Z,7.85
2023-11-21T16:00:21.283Z,7.54
2023-11-21T16:03:23.431Z,7.78
2023-11-21T16:06:25.190Z,7.65
2023-11-21T16:09:32.824Z,7.77
2023-11-21T16:12:34.664Z,7.59
2023-11-21T16:15:36.418Z,7.63
2023-11-21T16:18:38.209Z,7.59
2023-11-21T16:21:40.026Z,7.45
2023-11-21T16:24:41.795Z,7.20
2023-11-21T16:27:44.624Z,7.33
2023-11-21T16:30:46.499Z,7.48
2023-11-21T16:33:48.538Z,7.31
2023-11-21T16:36:50.437Z,7.46
2023-11-21T16:39:53.101Z,7.41
2023-11-21T16:42:54.894Z,7.39
2023-11-21T16:45:56.792Z,7.28
2023-11-21T16:48:58.625Z,7.35
2023-11-21T16:52:02.158Z,7.23
2023-11-21T16:55:04.139Z,7.36
2023-11-21T16:58:06.378Z,7.54
2023-11-21T17:01:09.352Z,7.22
2023-11-21T17:04:13.026Z,7.10
2023-11-21T17:07:22.051Z,7.30
2023-11-21T17:10:23.982Z,7.18
2023-11-21T17:13:26.140Z,7.35
2023-11-21T17:16:27.874Z,7.34
2023-11-21T17:19:33.246Z,7.36
2023-11-21T17:22:35.693Z,7.27
2023-11-21T17:25:38.454Z,7.42
2023-11-21T17:28:40.250Z,7.24
2023-11-21T17:31:42.110Z,7.27
2023-11-21T17:34:43.967Z,7.47
2023-11-21T17:37:45.772Z,7.39
2023-11-21T17:40:47.606Z,7.42
2023-11-21T17:43:49.879Z,7.42
2023-11-21T17:46:51.808Z,7.52
2023-11-21T17:49:54.648Z,7.51
2023-11-21T17:52:56.494Z,7.49
2023-11-21T17:55:58.303Z,7.23
2023-11-21T17:59:00.097Z,7.39
2023-11-21T18:02:02.585Z,7.50
2023-11-21T18:05:12.133Z,7.39
2023-11-21T18:08:15.005Z,7.43
2023-11-21T18:11:17.605Z,7.21
2023-11-21T18:14:19.396Z,7.32
2023-11-21T18:17:21.249Z,7.44
2023-11-21T18:20:23.078Z,7.42
2023-11-21T18:23:24.974Z,7.35
2023-11-21T18:26:26.791Z,7.25
2023-11-21T18:29:28.619Z,7.36
2023-11-21T18:32:30.606Z,7.31
2023-11-21T18:35:33.309Z,7.39
2023-11-21T18:38:35.290Z,7.33
2023-11-21T18:41:37.129Z,7.37
2023-11-21T18:44:55.481Z,7.38
2023-11-21T18:48:00.888Z,7.40
2023-11-21T18:51:02.840Z,7.30
2023-11-21T18:54:06.349Z,7.18
2023-11-21T18:57:09.716Z,7.25
2023-11-21T19:00:13.895Z,7.22
2023-11-21T19:03:15.910Z,7.23
2023-11-21T19:06:17.825Z,7.20
2023-11-21T19:09:19.583Z,7.13
2023-11-21T19:12:21.361Z,7.10
2023-11-21T19:15:23.419Z,7.06
2023-11-21T19:18:25.237Z,7.10
2023-11-21T19:21:27.088Z,7.01
2023-11-21T19:24:29.851Z,7.11
2023-11-21T19:27:33.245Z,6.88
2023-11-21T19:30:36.189Z,7.07
2023-11-21T19:33:37.957Z,6.99
2023-11-21T19:36:42.988Z,6.97
2023-11-21T19:39:44.885Z,6.87
2023-11-21T19:42:46.622Z,6.84
2023-11-21T19:45:48.468Z,6.91
2023-11-21T19:48:54.307Z,6.87
2023-11-21T19:51:56.651Z,6.71
2023-11-21T19:54:58.617Z,6.78
2023-11-21T19:58:03.718Z,6.79
2023-11-21T20:01:05.525Z,6.63
2023-11-21T20:04:07.335Z,6.50
2023-11-21T20:07:09.165Z,6.48
2023-11-21T20:10:11.364Z,6.58
2023-11-21T20:13:14.514Z,6.46
2023-11-21T20:16:20.092Z,6.43
2023-11-21T20:19:21.896Z,6.39
2023-11-21T20:22:23.674Z,6.31
2023-11-21T20:25:28.732Z,6.23
2023-11-21T20:28:30.707Z,6.22
2023-11-21T20:31:32.433Z,6.03
2023-11-21T20:34:34.291Z,6.15
2023-11-21T20:37:36.959Z,6.12
2023-11-21T20:40:38.713Z,5.97
2023-11-21T20:43:41.364Z,6.10
2023-11-21T20:46:45.352Z,5.84
2023-11-21T20:49:49.041Z,5.93
2023-11-21T20:52:51.797Z,5.80
2023-11-21T20:55:53.774Z,5.70
2023-11-21T20:58:56.732Z,5.68
2023-11-21T21:01:58.532Z,5.75
2023-11-21T21:05:00.363Z,5.57
2023-11-21T21:08:02.549Z,5.66
2023-11-21T21:11:04.685Z,5.54
2023-11-21T21:14:07.418Z,5.54
2023-11-21T21:17:09.609Z,5.38
2023-11-21T21:20:12.196Z,5.47
2023-11-21T21:23:15.272Z,5.42
2023-11-21T21:26:21.507Z,5.54
2023-11-21T21:29:27.449Z,5.72
2023-11-21T21:32:29.314Z,5.63
2023-11-21T21:35:31.198Z,5.55
2023-11-21T21:38:34.282Z,5.52
2023-11-21T21:41:35.993Z,5.38
2023-11-21T21:44:39.933Z,5.32
2023-11-21T21:47:41.840Z,5.25
2023-11-21T21:50:43.768Z,5.26
2023-11-21T21:53:46.819Z,5.18
2023-11-21T21:56:48.772Z,5.26
2023-11-21T21:59:50.935Z,4.99
2023-11-21T22:02:52.938Z,5.14
2023-11-21T22:05:54.885Z,4.95
2023-11-21T22:08:57.585Z,4.95
2023-11-21T22:11:59.334Z,4.87
2023-11-21T22:15:01.797Z,4.87
2023-11-21T22:18:03.662Z,4.89
2023-11-21T22:21:05.642Z,4.80
2023-11-21T22:24:08.440Z,4.84
2023-11-21T22:27:13.447Z,4.69
2023-11-21T22:30:15.565Z,4.60
2023-11-21T22:33:17.354Z,4.63
2023-11-21T22:36:19.265Z,4.63
2023-11-21T22:39:21.446Z,4.69
2023-11-21T22:42:23.185Z,4.63
2023-11-21T22:45:25.433Z,4.65
2023-11-21T22:48:28.450Z,4.46
2023-11-21T22:51:30.213Z,4.48
2023-11-21T22:54:32.078Z,4.58
2023-11-21T22:57:33.935Z,4.50
2023-11-21T23:00:37.943Z,4.30
2023-11-21T23:03:39.756Z,4.32
2023-11-21T23:06:41.937Z,4.37
2023-11-21T23:09:43.738Z,4.38
2023-11-21T23:12:45.546Z,4.22
2023-11-21T23:15:53.746Z,3.97
2023-11-21T23:18:55.586Z,4.03
2023-11-21T23:21:57.426Z,4.02
2023-11-21T23:24:59.161Z,4.06
2023-11-21T23:28:02.427Z,4.06
2023-11-21T23:31:04.170Z,4.02
2023-11-21T23:34:10.659Z,3.89
2023-11-21T23:37:13.589Z,4.15
2023-11-21T23:40:15.675Z,3.97
2023-11-21T23:43:17.412Z,3.80
2023-11-21T23:46:19.646Z,3.91
2023-11-21T23:49:21.465Z,3.84
2023-11-21T23:52:23.471Z,3.81
2023-11-21T23:55:25.261Z,3.65
2023-11-21T23:58:27.264Z,3.62
